Latest Coastal Weather Observations for Kingfish B

IDV60701

Issued at 1:11 pm EDT Monday 5 December 2016 (issued every 10 minutes, with the page automatically refreshed every 10 minutes)

About coastal observations | Map of coastal stations | Coastal observations for VIC | Marine services | Other Formats
Station Details ID: 400139 Name: KINGFISH B (PLATFORM) Lat: -38.60 Lon: 148.19 Height: 31.4 m
Data from the previous 72 hours. | See also: Recent months for locations in Victoria
Date/Time
EDT
Temp
°C
Wind Pressure Rain since
9am
mm
Weather Cloud Vis
km
Sea
Height
m
Swell
Dir  Spd
kts
Gust
kts
hPa Trend Height
m
Period
s
Dir
05/01:10pm 18.3 SW 26 31 1009.8 - - - - - - - - -
05/01:00pm 18.2 SW 25 29 1009.9 - - - - - - - - -
05/12:10pm 18.2 SW 29 33 1009.1 - - - - - - - - -
05/12:00pm 19.1 SW 30 34 1009.0 - - - - - - - - -
05/11:10am 18.6 SW 23 27 1008.6 - - - - - - - - -
05/11:00am 19.1 SW 22 26 1008.4 - - - - - - - - -
05/10:10am 19.4 SW 17 23 1007.6 - - - - - - - - -
05/10:00am 19.7 SW 17 20 1007.5 - - - - - - - - -
05/09:10am 22.7 NNW 17 19 1004.8 - - - - - - - - -
05/09:00am 22.2 NNW 17 19 1004.6 - - - - - - - - -
05/08:10am 20.7 - 20 23 1003.9 - - - - - - - - -
05/08:00am 20.5 N 19 23 1003.8 - - - - - - - - -
05/07:10am 20.6 N 21 22 1003.2 - - - - - - - - -
05/07:00am 20.5 N 21 24 1003.2 - - - - - - - - -
05/06:10am 20.7 N 23 24 1002.9 - - - - - - - - -
05/06:00am 20.7 N 24 26 1002.9 - - - - - - - - -
05/05:00am 20.5 N 25 27 1003.3 - - - - - - - - -
05/04:00am 20.7 N 19 22 1004.3 - - - - - - - - -
05/03:10am 22.1 N 13 17 1005.0 - - - - - - - - -
05/03:00am 22.6 NNW 13 14 1005.2 - - - - - - - - -
05/02:00am 22.5 NW 12 15 1006.0 - - - - - - - - -
05/01:00am 21.5 WNW 10 11 1006.6 - - - - - - - - -
05/12:00am 22.2 WNW 16 20 1007.2 - - - - - - - - -
 
Date/Time
EDT
Temp
°C
Wind Pressure Rain since
9am
mm
Weather Cloud Vis
km
Sea
Height
m
Swell
Dir  Spd
kts
Gust
kts
hPa Trend Height
m
Period
s
Dir
04/11:00pm 20.4 NE 21 26 1005.8 - - - - - - - - -
04/10:00pm 20.6 NE 24 26 1005.4 - - - - - - - - -
04/09:10pm 19.9 NE 20 23 1005.7 - - - - - - - - -
04/09:00pm 19.9 NE 21 23 1005.7 - - - - - - - - -
04/08:10pm 19.8 ENE 19 22 1006.1 - - - - - - - - -
04/08:00pm 19.8 ENE 20 23 1006.1 - - - - - - - - -
04/07:10pm 20.0 ENE 15 18 1006.9 - - - - - - - - -
04/07:00pm 20.2 ENE 17 19 1007.0 - - - - - - - - -
04/06:10pm 19.7 ENE 17 18 1007.7 - - - - - - - - -
04/06:00pm 19.7 NE 16 18 1007.8 - - - - - - - - -
04/05:10pm 19.8 ENE 11 12 1008.3 - - - - - - - - -
04/05:00pm 19.8 ENE 10 11 1008.6 - - - - - - - - -
04/04:10pm 19.0 ENE 10 13 1009.2 - - - - - - - - -
04/04:00pm 19.0 ENE 10 13 1009.3 - - - - - - - - -
04/03:00pm 19.5 ENE 7 9 1010.1 - - - - - - - - -
04/02:00pm 20.0 ENE 6 7 1011.0 - - - - - - - - -
04/01:00pm 20.3 ENE 8 10 1011.7 - - - - - - - - -
04/11:10am 18.7 ENE 12 15 1012.6 - - - - - - - - -
04/11:00am 18.6 ENE 11 15 1012.5 - - - - - - - - -
04/10:00am 19.8 ENE 11 14 1012.9 - - - - - - - - -
04/09:10am 19.3 ENE 10 14 1013.3 - - - - - - - - -
04/09:00am 19.4 ENE 12 15 1013.4 - - - - - - - - -
04/08:00am 16.6 ENE 15 17 1013.6 - - - - - - - - -
04/07:00am 16.3 ENE 12 16 1012.9 - - - - - - - - -
04/06:00am 16.2 ENE 12 17 1013.6 - - - - - - - - -
04/05:00am 16.1 ENE 12 15 1014.1 - - - - - - - - -
04/04:00am 16.0 ENE 10 13 1014.8 - - - - - - - - -
04/03:00am 15.9 ENE 7 10 1015.8 - - - - - - - - -
04/02:00am 15.9 ENE 5 8 1016.4 - - - - - - - - -
04/12:10am 15.6 ENE 3 5 1016.8 - - - - - - - - -
04/12:00am 15.6 ENE 4 6 1016.7 - - - - - - - - -
 
Date/Time
EDT
Temp
°C
Wind Pressure Rain since
9am
mm
Weather Cloud Vis
km
Sea
Height
m
Swell
Dir  Spd
kts
Gust
kts
hPa Trend Height
m
Period
s
Dir
03/11:10pm 15.5 ENE 4 6 1016.5 - - - - - - - - -
03/11:00pm 15.4 ENE 4 7 1016.5 - - - - - - - - -
03/10:10pm 15.3 E 4 6 1016.3 - - - - - - - - -
03/10:00pm 15.3 E 4 6 1016.3 - - - - - - - - -
03/09:10pm 15.2 E 4 6 1015.9 - - - - - - - - -
03/09:00pm 15.2 E 4 8 1015.8 - - - - - - - - -
03/08:10pm 15.1 E 2 7 1015.9 - - - - - - - - -
03/08:00pm 15.1 E 1 4 1015.9 - - - - - - - - -
03/07:10pm 15.1 E 3 6 1015.6 - - - - - - - - -
03/07:00pm 15.0 E 5 8 1015.6 - - - - - - - - -
03/06:10pm 14.9 E 3 9 1015.7 - - - - - - - - -
03/06:00pm 14.9 ESE 2 7 1015.7 - - - - - - - - -
03/05:10pm 14.9 SSE 1 5 1016.1 - - - - - - - - -
03/05:00pm 14.8 SE 1 5 1016.1 - - - - - - - - -
03/04:00pm 14.9 SSE 1 5 1016.5 - - - - - - - - -
03/03:00pm 15.4 S 2 4 1016.5 - - - - - - - - -
03/02:00pm 15.8 S 1 3 1016.7 - - - - - - - - -
03/01:00pm 15.6 S 1 2 1016.7 - - - - - - - - -
03/12:00pm 16.3 SSW 1 2 1016.6 - - - - - - - - -
03/11:00am 17.3 SW 2 3 1016.6 - - - - - - - - -
03/10:00am 17.4 SSW 5 6 1016.2 - - - - - - - - -
03/08:10am 14.6 SW 5 6 1015.6 - - - - - - - - -
03/08:00am 14.6 SW 5 7 1015.5 - - - - - - - - -
03/07:10am 14.2 SW 6 8 1014.9 - - - - - - - - -
03/07:00am 14.3 SW 6 8 1014.8 - - - - - - - - -
03/06:10am 14.6 SW 6 8 1014.9 - - - - - - - - -
03/06:00am 14.8 SW 7 9 1015.0 - - - - - - - - -
03/05:10am 16.0 SW 8 10 1015.1 - - - - - - - - -
03/05:00am 14.6 SW 9 11 1015.2 - - - - - - - - -
03/04:10am 14.5 WSW 8 10 1015.5 - - - - - - - - -
03/04:00am 14.5 SW 9 11 1015.6 - - - - - - - - -
03/03:10am 14.8 SW 11 14 1015.5 - - - - - - - - -
03/03:00am 14.9 SW 11 14 1015.7 - - - - - - - - -
03/02:10am 15.2 SW 14 17 1015.6 - - - - - - - - -
03/02:00am 15.1 SW 13 16 1015.7 - - - - - - - - -
03/01:10am 15.3 SW 14 17 1015.8 - - - - - - - - -
03/01:00am 15.3 SW 16 17 1015.7 - - - - - - - - -
03/12:10am 15.3 SW 16 19 1015.7 - - - - - - - - -
03/12:00am 15.4 SW 17 20 1015.6 - - - - - - - - -
 
Date/Time
EDT
Temp
°C
Wind Pressure Rain since
9am
mm
Weather Cloud Vis
km
Sea
Height
m
Swell
Dir  Spd
kts
Gust
kts
hPa Trend Height
m
Period
s
Dir
02/11:00pm 15.0 SW 19 21 1014.9 - - - - - - - - -
02/10:00pm 15.2 SSW 21 24 1014.3 - - - - - - - - -
02/09:00pm 15.6 SSW 18 21 1013.5 - - - - - - - - -
02/08:00pm 15.6 SSW 19 22 1012.9 - - - - - - - - -
02/07:00pm 16.0 SSW 19 22 1012.0 - - - - - - - - -
02/06:00pm 16.4 SSW 21 24 1012.2 - - - - - - - - -
02/05:00pm 16.7 SSW 18 22 1011.7 - - - - - - - - -
02/04:10pm 17.9 SW 14 17 1011.2 - - - - - - - - -
02/04:00pm 18.0 SW 13 16 1011.2 - - - - - - - - -
02/03:10pm 18.8 SW 15 17 1010.9 - - - - - - - - -
02/03:00pm 19.2 SW 12 16 1010.8 - - - - - - - - -
02/02:10pm 19.6 SW 9 11 1010.7 - - - - - - - - -
02/02:00pm 19.7 SW 9 10 1010.7 - - - - - - - - -

Other Formats:

Comma delimited format used in spreadsheet applications
http://www.bom.gov.au/fwo/IDV60701/IDV60701.55039.axf

JavaScript Object Notation format (JSON) in row-major order
http://www.bom.gov.au/fwo/IDV60701/IDV60701.55039.json